x

Mount Louis (45138) Wave Buoy

1:00am - Wed 5th Aug 2015 All times are UTC.

  • Sig Wave height 1.0ft
  • Peak Period 5s
  • Wind
    7mph
  • Sea Temp 57°f
  • Air Temp 60°f
  • Sea Pressure 1006.5mb

More Historic Weather Station data

Upgrade to MSW Pro to gain access to the past 30 days of data for over 8000 Wavebouys and Weather Stations around the globe.

Join Pro

Comparision Forecast

View Surf forecast
   
Wed 08/05 1:00am 1ft 5s 7
mph
1006.5mb 57f 60f
12:00am 1ft 5s 13
mph
1006.6mb 57f 60f
Tue 08/04 11:00pm 1ft 6s 7 9 mph 1006.5mb 57f 58f
10:00pm 1ft 6s 7 9 mph 1006.5mb 58f 59f
9:00pm 1ft 5s 7 9 mph 1006.8mb 59f 59f
8:00pm 1ft 5s 4 7 mph 1007.2mb 61f 61f
7:00pm 1ft 5s 7 9 mph 1006.8mb 61f 62f
6:00pm 1ft 5s 7
mph
1007.3mb 62f 63f
5:00pm 1ft 5s 4
mph
1007.7mb 61f 64f
4:00pm 1ft 5s 4
mph
1008mb 61f 64f
3:00pm 1ft 5s 2
mph
1007.8mb 59f 64f
2:00pm 1ft 5s 4 7 mph 1007.7mb 57f 61f
1:00pm 1.3ft 6s 7 9 mph 1007.6mb 55f 65f
12:00pm 1ft 6s 7
mph
1007.5mb 54f 61f
11:00am 1.3ft 5s 4
mph
1007.5mb 53f 60f
10:00am 1.3ft 5s 7 9 mph 1007mb 53f 60f
9:00am 1.3ft 5s 7
mph
1006.5mb 53f 58f
8:00am 1.3ft 3s 9
mph
1006.6mb 54f 63f
7:00am 1.6ft 5s 4 7 mph 1006.3mb 54f 62f
6:00am 1.6ft 4s 4 7 mph 1006.1mb 53f 62f
5:00am 1.6ft 5s 9
mph
1005.7mb 54f 63f
4:00am 2ft 5s 7
mph
1006.6mb 55f 62f
3:00am 2ft 5s 4 7 mph 1006.4mb 55f 58f
2:00am 2ft 5s 4
mph
1005.9mb 54f 59f
1:00am 2ft 5s 4 7 mph 1005.7mb 54f 58f
12:00am 2.5ft 4s 2 4 mph 1005.5mb 53f 63f
Mon 08/03 11:00pm 3ft 4s 9 11 mph 1004.7mb 52f 60f
10:00pm 2.5ft 4s 18 22 mph 1003.6mb 52f 61f
9:00pm 2.5ft 4s 18 20 mph 1001.9mb 52f 59f
8:00pm 1.6ft 3s 18 22 mph 1002.6mb 52f 60f
7:00pm 1.6ft 3s 20 22 mph 1003.2mb 52f 59f
6:00pm 1.3ft 2s 20 22 mph 1004.7mb 52f 59f
5:00pm 0.7ft  -  13 16 mph 1005.5mb 52f 57f
4:00pm 0.7ft 5s 9 11 mph 1006.9mb 52f 56f
3:00pm 0.7ft 5s 11
mph
1007.4mb 51f 59f
2:00pm 0.7ft 5s 9 11 mph 1007.7mb 51f 57f
1:00pm 1ft 5s 11 13 mph 1008mb 51f 57f
12:00pm 1ft 5s 4 7 mph 1007.8mb 51f 56f
11:00am 1ft 5s 4 9 mph 1007.5mb 51f 58f
10:00am 1ft 5s 4
mph
1007mb 52f 57f
9:00am 1.3ft 3s 7 9 mph 1006.7mb 52f 56f
8:00am 1.6ft 4s 9 11 mph 1006.6mb 52f 58f
7:00am 1.6ft 4s 13
mph
1006.6mb 52f 60f
6:00am 2ft 4s 11 13 mph 1006.4mb 52f 59f
5:00am 2ft 4s 13 18 mph 1006.3mb 52f 59f
4:00am 2.5ft 4s 11 13 mph 1006.4mb 52f 58f
3:00am 2.5ft 5s 16 18 mph 1006.6mb 52f 59f
2:00am 3.5ft 5s 16 18 mph 1006.5mb 52f 58f
1:00am 3.5ft 5s 18 20 mph 1006.1mb 52f 58f
12:00am 3.5ft 5s 18 20 mph 1005.8mb 51f 57f
Sun 08/02 11:00pm 3.5ft 5s 18 20 mph 1005.4mb 51f 58f
10:00pm 4ft 5s 16 20 mph 1004.7mb 50f 57f
9:00pm 4ft 5s 18 20 mph 1004.3mb 50f 57f
8:00pm 4.5ft 5s 16 18 mph 1004.2mb 50f 57f
7:00pm 4.5ft 6s 18 22 mph 1004.1mb 50f 58f
6:00pm 5ft 6s 18 22 mph 1004mb 51f 58f
5:00pm 5ft 6s 22 27 mph 1003.8mb 52f 58f
4:00pm 5ft 5s 22 27 mph 1003.8mb 52f 58f
3:00pm 4.5ft 5s 20 25 mph 1004mb 53f 58f
2:00pm 4.5ft 5s 20 25 mph 1003.7mb 54f 58f
1:00pm 4.5ft 5s 22 27 mph 1003.3mb 54f 58f
12:00pm 4.5ft 5s 25 29 mph 1002.7mb 54f 58f
11:00am 4.5ft 5s 22 29 mph 1002mb 55f 58f
10:00am 4.5ft 5s 25 27 mph 1001.5mb 56f 59f
9:00am 3.5ft 5s 22 27 mph 1001.2mb 58f 58f
8:00am 2.5ft 4s 20 25 mph 1000.7mb 58f 59f
7:00am 2.5ft 4s 16 18 mph 1000.8mb 58f 59f
6:00am 2.5ft 4s 18 20 mph 1000.9mb 59f 59f
5:00am 2.5ft 4s 18 22 mph 1000.8mb 59f 59f
4:00am 1.3ft 6s 16 18 mph 1001.2mb 59f 59f
3:00am 1.3ft 6s 16 18 mph 1001.2mb 59f 61f
2:00am 1.3ft 6s 7
mph
1001.1mb 59f 61f
1:00am 1.3ft 7s 7
mph
1001.4mb 59f 61f
12:00am 1.3ft 7s 7
mph
1001.6mb 60f 61f
Sat 08/01 11:00pm 1.3ft 7s 2 4 mph 1001mb 60f 61f
10:00pm 1.3ft 7s 9 13 mph 1001.9mb 60f 61f
9:00pm 1.6ft 7s 7
mph
1001.2mb 60f 61f
8:00pm 1.6ft 7s 2
mph
1001.7mb 61f 61f
7:00pm 1.6ft 8s 4 7 mph 1001.3mb 61f 62f
6:00pm 1.6ft 7s 9
mph
1002mb 61f 61f
5:00pm 2ft 8s 4 7 mph 1002.4mb 60f 60f
4:00pm 1.6ft 8s 4 7 mph 1002.8mb 59f 60f
3:00pm 1.3ft 8s 4 7 mph 1003mb 59f 59f
2:00pm 1.6ft 8s 7
mph
1003.1mb 58f 58f
1:00pm 2.5ft 8s 7 9 mph 1003.1mb 58f 57f
12:00pm 2ft 8s 7 9 mph 1003.4mb 58f 57f
11:00am 2ft 7s 4
mph
1003.4mb 58f 56f
10:00am 2ft 6s 4
mph
1002.8mb 58f 55f
9:00am 2ft 6s 2 4 mph 1002.5mb 58f 56f
8:00am 2ft 6s 2 4 mph 1002.3mb 58f 56f
7:00am 2ft 7s 7 9 mph 1002.2mb 58f 57f
6:00am 2.5ft 6s 9 11 mph 1002mb 58f 57f
5:00am 2.5ft 6s 11 13 mph 1002.3mb 58f 57f
4:00am 2.5ft 3s 11 13 mph 1002.6mb 58f 58f
3:00am 3ft 4s 13 16 mph 1002.7mb 58f 59f